createdAt,value
2023-05-20T00:00:08.283Z,94682.00
2023-05-20T00:01:08.297Z,94680.00
2023-05-20T00:02:08.295Z,94682.00
2023-05-20T00:03:08.370Z,94684.00
2023-05-20T00:04:08.476Z,94680.00
2023-05-20T00:05:08.306Z,94682.00
2023-05-20T00:06:08.276Z,94682.00
2023-05-20T00:07:08.324Z,94682.00
2023-05-20T00:08:08.280Z,94682.00
2023-05-20T00:09:08.250Z,94684.00
2023-05-20T00:10:08.308Z,94680.00
2023-05-20T00:11:08.254Z,94680.00
2023-05-20T00:12:08.269Z,94678.00
2023-05-20T00:13:08.251Z,94676.00
2023-05-20T00:14:08.245Z,94676.00
2023-05-20T00:15:08.245Z,94674.00
2023-05-20T00:16:08.368Z,94674.00
2023-05-20T00:17:08.234Z,94674.00
2023-05-20T00:18:08.312Z,94674.00
2023-05-20T00:19:08.289Z,94674.00
2023-05-20T00:20:08.226Z,94670.00
2023-05-20T00:21:08.256Z,94666.00
2023-05-20T00:22:08.219Z,94666.00
2023-05-20T00:23:08.235Z,94663.00
2023-05-20T00:24:08.221Z,94661.00
2023-05-20T00:25:08.206Z,94661.00
2023-05-20T00:26:08.221Z,94661.00
2023-05-20T00:27:08.204Z,94659.00
2023-05-20T00:28:08.209Z,94661.00
2023-05-20T00:29:08.201Z,94659.00
2023-05-20T00:30:08.217Z,94661.00
2023-05-20T00:31:08.181Z,94655.00
2023-05-20T00:32:08.244Z,94657.00
2023-05-20T00:33:08.249Z,94653.00
2023-05-20T00:34:08.187Z,94653.00
2023-05-20T00:35:08.204Z,94651.00
2023-05-20T00:36:08.187Z,94645.00
2023-05-20T00:37:08.185Z,94643.00
2023-05-20T00:38:08.192Z,94633.00
2023-05-20T00:39:08.205Z,94629.00
2023-05-20T00:40:08.188Z,94627.00
2023-05-20T00:41:08.205Z,94627.00
2023-05-20T00:42:08.203Z,94623.00
2023-05-20T00:43:08.195Z,94623.00
2023-05-20T00:44:08.200Z,94619.00
2023-05-20T00:45:08.211Z,94623.00
2023-05-20T00:46:08.231Z,94623.00
2023-05-20T00:47:08.207Z,94621.00
2023-05-20T00:48:08.306Z,94625.00
2023-05-20T00:49:08.217Z,94625.00
2023-05-20T00:50:08.217Z,94627.00
2023-05-20T00:51:08.220Z,94625.00
2023-05-20T00:52:08.230Z,94629.00
2023-05-20T00:53:08.240Z,94631.00
2023-05-20T00:54:08.232Z,94631.00
2023-05-20T00:55:08.230Z,94631.00
2023-05-20T00:56:08.254Z,94633.00
2023-05-20T00:57:08.259Z,94633.00
2023-05-20T00:58:08.261Z,94641.00
2023-05-20T00:59:08.228Z,94645.00
2023-05-20T01:00:08.271Z,94647.00
2023-05-20T01:01:08.245Z,94649.00
2023-05-20T01:02:08.241Z,94647.00
2023-05-20T01:03:08.302Z,94647.00
2023-05-20T01:04:08.262Z,94647.00
2023-05-20T01:05:08.267Z,94645.00
2023-05-20T01:06:08.268Z,94645.00
2023-05-20T01:07:08.266Z,94643.00
2023-05-20T01:08:08.279Z,94643.00
2023-05-20T01:09:08.275Z,94633.00
2023-05-20T01:10:08.286Z,94641.00
2023-05-20T01:11:08.296Z,94633.00
2023-05-20T01:12:08.276Z,94633.00
2023-05-20T01:13:08.279Z,94641.00
2023-05-20T01:14:08.280Z,94633.00
2023-05-20T01:15:08.276Z,94643.00
2023-05-20T01:16:08.328Z,94647.00
2023-05-20T01:17:08.311Z,94649.00
2023-05-20T01:18:08.312Z,94645.00
2023-05-20T01:19:08.329Z,94649.00
2023-05-20T01:20:08.283Z,94649.00
2023-05-20T01:21:08.289Z,94651.00
2023-05-20T01:22:08.285Z,94645.00
2023-05-20T01:23:08.319Z,94647.00
2023-05-20T01:24:08.289Z,94645.00
2023-05-20T01:25:08.283Z,94649.00
2023-05-20T01:26:08.300Z,94653.00
2023-05-20T01:27:08.294Z,94653.00
2023-05-20T01:28:08.314Z,94655.00
2023-05-20T01:29:08.308Z,94651.00
2023-05-20T01:30:08.313Z,94653.00
2023-05-20T01:31:08.357Z,94657.00
2023-05-20T01:32:08.310Z,94659.00
2023-05-20T01:33:08.384Z,94657.00
2023-05-20T01:34:08.310Z,94659.00
2023-05-20T01:35:08.348Z,94659.00
2023-05-20T01:36:08.308Z,94657.00
2023-05-20T01:37:08.311Z,94655.00
2023-05-20T01:38:08.387Z,94653.00
2023-05-20T01:39:08.316Z,94655.00
2023-05-20T01:40:08.354Z,94657.00
2023-05-20T01:41:08.332Z,94657.00
2023-05-20T01:42:08.336Z,94657.00
2023-05-20T01:43:08.353Z,94659.00
2023-05-20T01:44:08.355Z,94657.00
2023-05-20T01:45:08.358Z,94655.00
2023-05-20T01:46:08.380Z,94653.00
2023-05-20T01:47:08.408Z,94653.00
2023-05-20T01:48:08.459Z,94657.00
2023-05-20T01:49:08.368Z,94661.00
2023-05-20T01:50:08.371Z,94663.00
2023-05-20T01:51:08.368Z,94664.00
2023-05-20T01:52:08.373Z,94663.00
2023-05-20T01:53:08.370Z,94661.00
2023-05-20T01:54:08.370Z,94661.00
2023-05-20T01:55:08.377Z,94663.00
2023-05-20T01:56:08.381Z,94664.00
2023-05-20T01:57:08.385Z,94661.00
2023-05-20T01:58:08.437Z,94657.00
2023-05-20T01:59:08.397Z,94659.00
2023-05-20T02:00:08.421Z,94661.00
2023-05-20T02:01:08.454Z,94659.00
2023-05-20T02:02:08.449Z,94661.00
2023-05-20T02:03:08.538Z,94661.00
2023-05-20T02:04:08.413Z,94659.00
2023-05-20T02:05:08.454Z,94657.00
2023-05-20T02:06:08.473Z,94655.00
2023-05-20T02:07:08.427Z,94649.00
2023-05-20T02:08:08.439Z,94647.00
2023-05-20T02:09:08.436Z,94653.00
2023-05-20T02:10:08.442Z,94653.00
2023-05-20T02:11:08.441Z,94653.00
2023-05-20T02:12:08.435Z,94657.00
2023-05-20T02:13:08.483Z,94653.00
2023-05-20T02:14:08.460Z,94651.00
2023-05-20T02:15:08.467Z,94651.00
2023-05-20T02:16:08.488Z,94655.00
2023-05-20T02:17:08.454Z,94651.00
2023-05-20T02:18:08.583Z,94649.00
2023-05-20T02:19:08.619Z,94649.00
2023-05-20T02:20:08.489Z,94647.00
2023-05-20T02:21:08.491Z,94647.00
2023-05-20T02:22:08.498Z,94649.00
2023-05-20T02:23:08.520Z,94647.00
2023-05-20T02:24:08.527Z,94645.00
2023-05-20T02:25:08.523Z,94645.00
2023-05-20T02:26:08.536Z,94645.00
2023-05-20T02:27:08.548Z,94645.00
2023-05-20T02:28:08.543Z,94643.00
2023-05-20T02:29:08.549Z,94643.00
2023-05-20T02:30:08.555Z,94641.00
2023-05-20T02:31:08.587Z,94633.00
2023-05-20T02:32:08.573Z,94631.00
2023-05-20T02:33:08.662Z,94641.00
2023-05-20T02:34:08.622Z,94641.00
2023-05-20T02:35:08.588Z,94641.00
2023-05-20T02:36:08.591Z,94641.00
2023-05-20T02:37:08.590Z,94641.00
2023-05-20T02:38:08.612Z,94633.00
2023-05-20T02:39:08.611Z,94631.00
2023-05-20T02:40:08.631Z,94631.00
2023-05-20T02:41:08.644Z,94641.00
2023-05-20T02:42:08.640Z,94633.00
2023-05-20T02:43:08.633Z,94631.00
2023-05-20T02:44:08.638Z,94629.00
2023-05-20T02:45:08.659Z,94627.00
2023-05-20T02:46:08.708Z,94627.00
2023-05-20T02:47:08.669Z,94627.00
2023-05-20T02:48:08.735Z,94627.00
2023-05-20T02:49:08.694Z,94627.00
2023-05-20T02:50:08.677Z,94625.00
2023-05-20T02:51:08.701Z,94627.00
2023-05-20T02:52:08.700Z,94625.00
2023-05-20T02:53:08.684Z,94625.00
2023-05-20T02:54:08.686Z,94627.00
2023-05-20T02:55:08.711Z,94625.00
2023-05-20T02:56:08.682Z,94623.00
2023-05-20T02:57:08.715Z,94623.00
2023-05-20T02:58:08.723Z,94621.00
2023-05-20T02:59:08.721Z,94623.00
2023-05-20T03:00:08.729Z,94623.00
2023-05-20T03:01:08.730Z,94625.00
2023-05-20T03:02:08.719Z,94625.00
2023-05-20T03:03:08.780Z,94627.00
2023-05-20T03:04:08.800Z,94631.00
2023-05-20T03:05:08.799Z,94629.00
2023-05-20T03:06:08.784Z,94627.00
2023-05-20T03:07:08.763Z,94627.00
2023-05-20T03:08:08.791Z,94627.00
2023-05-20T03:09:08.799Z,94625.00
2023-05-20T03:10:08.803Z,94625.00
2023-05-20T03:11:08.808Z,94625.00
2023-05-20T03:12:08.805Z,94627.00
2023-05-20T03:13:08.842Z,94625.00
2023-05-20T03:14:08.815Z,94627.00
2023-05-20T03:15:08.829Z,94625.00
2023-05-20T03:16:08.928Z,94625.00
2023-05-20T03:17:08.809Z,94625.00
2023-05-20T03:18:08.812Z,94623.00
2023-05-20T03:19:08.882Z,94625.00
2023-05-20T03:20:08.877Z,94627.00
2023-05-20T03:21:08.883Z,94625.00
2023-05-20T03:22:08.857Z,94623.00
2023-05-20T03:23:08.851Z,94623.00
2023-05-20T03:24:08.851Z,94623.00
2023-05-20T03:25:08.853Z,94621.00
2023-05-20T03:26:08.868Z,94621.00
2023-05-20T03:27:08.889Z,94621.00
2023-05-20T03:28:08.858Z,94619.00
2023-05-20T03:29:08.861Z,94616.00
2023-05-20T03:30:08.849Z,94614.00
2023-05-20T03:31:08.879Z,94614.00
2023-05-20T03:32:10.853Z,94612.00
2023-05-20T03:33:08.852Z,94610.00
2023-05-20T03:34:08.870Z,94610.00
2023-05-20T03:35:08.873Z,94612.00
2023-05-20T03:36:08.872Z,94610.00
2023-05-20T03:37:08.879Z,94608.00
2023-05-20T03:38:08.918Z,94606.00
2023-05-20T03:39:08.910Z,94604.00
2023-05-20T03:40:08.890Z,94604.00
2023-05-20T03:41:08.894Z,94604.00
2023-05-20T03:42:08.886Z,94606.00
2023-05-20T03:43:08.883Z,94604.00
2023-05-20T03:44:08.912Z,94606.00
2023-05-20T03:45:08.897Z,94606.00
2023-05-20T03:46:08.969Z,94608.00
2023-05-20T03:47:08.954Z,94610.00
2023-05-20T03:48:08.984Z,94610.00
2023-05-20T03:49:08.948Z,94610.00
2023-05-20T03:50:08.964Z,94602.00
2023-05-20T03:51:08.965Z,94600.00
2023-05-20T03:52:09.001Z,94604.00
2023-05-20T03:53:09.002Z,94602.00
2023-05-20T03:54:09.028Z,94606.00
2023-05-20T03:55:09.000Z,94606.00
2023-05-20T03:56:09.002Z,94602.00
2023-05-20T03:57:08.995Z,94602.00
2023-05-20T03:58:09.006Z,94604.00
2023-05-20T03:59:09.024Z,94604.00
2023-05-20T04:00:08.992Z,94600.00
2023-05-20T04:01:09.011Z,94598.00
2023-05-20T04:02:09.061Z,94594.00
2023-05-20T04:03:09.160Z,94598.00
2023-05-20T04:04:09.149Z,94598.00
2023-05-20T04:05:09.046Z,94598.00
2023-05-20T04:06:09.062Z,94600.00
2023-05-20T04:07:09.064Z,94604.00
2023-05-20T04:08:09.045Z,94600.00
2023-05-20T04:09:09.087Z,94604.00
2023-05-20T04:10:09.068Z,94604.00
2023-05-20T04:11:09.086Z,94606.00
2023-05-20T04:12:09.065Z,94604.00
2023-05-20T04:13:09.063Z,94604.00
2023-05-20T04:14:09.073Z,94606.00
2023-05-20T04:15:09.063Z,94606.00
2023-05-20T04:16:09.093Z,94606.00
2023-05-20T04:17:09.156Z,94604.00
2023-05-20T04:18:09.186Z,94604.00
2023-05-20T04:19:09.177Z,94604.00
2023-05-20T04:20:09.109Z,94604.00
2023-05-20T04:21:09.110Z,94606.00
2023-05-20T04:22:09.103Z,94608.00
2023-05-20T04:23:09.126Z,94610.00
2023-05-20T04:24:09.146Z,94614.00
2023-05-20T04:25:09.132Z,94612.00
2023-05-20T04:26:09.137Z,94616.00
2023-05-20T04:27:09.145Z,94614.00
2023-05-20T04:28:09.148Z,94614.00
2023-05-20T04:29:09.165Z,94614.00
2023-05-20T04:30:09.189Z,94614.00
2023-05-20T04:31:09.156Z,94616.00
2023-05-20T04:32:09.207Z,94616.00
2023-05-20T04:33:09.264Z,94616.00
2023-05-20T04:34:09.227Z,94616.00
2023-05-20T04:35:09.177Z,94616.00
2023-05-20T04:36:09.193Z,94618.00
2023-05-20T04:37:09.217Z,94618.00
2023-05-20T04:38:09.220Z,94618.00
2023-05-20T04:39:09.211Z,94616.00
2023-05-20T04:40:09.246Z,94616.00
2023-05-20T04:41:09.212Z,94619.00
2023-05-20T04:42:09.252Z,94619.00
2023-05-20T04:43:09.220Z,94621.00
2023-05-20T04:44:09.257Z,94618.00
2023-05-20T04:45:09.278Z,94621.00
2023-05-20T04:46:09.311Z,94619.00
2023-05-20T04:47:09.260Z,94621.00
2023-05-20T04:48:09.300Z,94621.00
2023-05-20T04:49:09.268Z,94619.00
2023-05-20T04:50:09.304Z,94621.00
2023-05-20T04:51:09.271Z,94621.00
2023-05-20T04:52:09.313Z,94621.00
2023-05-20T04:53:09.330Z,94621.00
2023-05-20T04:54:09.305Z,94623.00
2023-05-20T04:55:09.321Z,94619.00
2023-05-20T04:56:09.310Z,94621.00
2023-05-20T04:57:09.314Z,94619.00
2023-05-20T04:58:09.338Z,94621.00
2023-05-20T04:59:09.350Z,94619.00
2023-05-20T05:00:09.345Z,94621.00
2023-05-20T05:01:09.374Z,94621.00
2023-05-20T05:02:09.348Z,94621.00
2023-05-20T05:03:09.460Z,94621.00
2023-05-20T05:04:09.518Z,94621.00
2023-05-20T05:05:09.426Z,94619.00
2023-05-20T05:06:09.397Z,94618.00
2023-05-20T05:07:09.422Z,94618.00
2023-05-20T05:08:09.400Z,94618.00
2023-05-20T05:09:09.400Z,94619.00
2023-05-20T05:10:09.412Z,94619.00
2023-05-20T05:11:09.435Z,94618.00
2023-05-20T05:12:09.443Z,94619.00
2023-05-20T05:13:09.442Z,94619.00
2023-05-20T05:14:09.477Z,94614.00
2023-05-20T05:15:09.445Z,94616.00
2023-05-20T05:16:09.526Z,94612.00
2023-05-20T05:17:09.449Z,94614.00
2023-05-20T05:18:09.562Z,94614.00
2023-05-20T05:19:09.512Z,94616.00
2023-05-20T05:20:09.516Z,94618.00
2023-05-20T05:21:09.481Z,94616.00
2023-05-20T05:22:09.484Z,94616.00
2023-05-20T05:23:09.505Z,94614.00
2023-05-20T05:24:09.494Z,94616.00
2023-05-20T05:25:09.505Z,94614.00
2023-05-20T05:26:09.495Z,94614.00
2023-05-20T05:27:09.539Z,94612.00
2023-05-20T05:28:09.500Z,94612.00
2023-05-20T05:29:11.600Z,94610.00
2023-05-20T05:30:09.564Z,94610.00
2023-05-20T05:31:09.543Z,94606.00
2023-05-20T05:32:09.599Z,94602.00
2023-05-20T05:33:09.569Z,94606.00
2023-05-20T05:34:09.538Z,94606.00
2023-05-20T05:35:09.535Z,94606.00
2023-05-20T05:36:09.550Z,94608.00
2023-05-20T05:37:09.542Z,94608.00
2023-05-20T05:38:09.549Z,94610.00
2023-05-20T05:39:09.552Z,94610.00
2023-05-20T05:40:09.550Z,94610.00
2023-05-20T05:41:09.542Z,94612.00
2023-05-20T05:42:09.524Z,94614.00
2023-05-20T05:43:09.527Z,94612.00
2023-05-20T05:44:09.545Z,94612.00
2023-05-20T05:45:09.538Z,94612.00
2023-05-20T05:46:09.521Z,94610.00
2023-05-20T05:47:09.631Z,94612.00
2023-05-20T05:48:09.567Z,94610.00
2023-05-20T05:49:09.502Z,94610.00
2023-05-20T05:50:09.520Z,94612.00
2023-05-20T05:51:09.506Z,94610.00
2023-05-20T05:52:09.520Z,94608.00
2023-05-20T05:53:09.505Z,94610.00
2023-05-20T05:54:09.509Z,94612.00
2023-05-20T05:55:09.538Z,94612.00
2023-05-20T05:56:09.518Z,94616.00
2023-05-20T05:57:09.510Z,94616.00
2023-05-20T05:58:09.517Z,94618.00
2023-05-20T05:59:09.531Z,94619.00
2023-05-20T06:00:09.531Z,94618.00
2023-05-20T06:01:09.619Z,94619.00
2023-05-20T06:02:09.564Z,94619.00
2023-05-20T06:03:09.622Z,94616.00
2023-05-20T06:04:09.647Z,94616.00
2023-05-20T06:05:09.540Z,94614.00
2023-05-20T06:06:09.546Z,94618.00
2023-05-20T06:07:09.536Z,94618.00
2023-05-20T06:08:09.546Z,94621.00
2023-05-20T06:09:09.537Z,94621.00
2023-05-20T06:10:09.522Z,94621.00
2023-05-20T06:11:09.522Z,94621.00
2023-05-20T06:12:10.553Z,94621.00
2023-05-20T06:13:09.520Z,94618.00
2023-05-20T06:14:09.565Z,94623.00
2023-05-20T06:15:09.518Z,94621.00
2023-05-20T06:16:09.548Z,94621.00
2023-05-20T06:17:09.552Z,94621.00
2023-05-20T06:18:09.543Z,94621.00
2023-05-20T06:19:09.754Z,94621.00
2023-05-20T06:20:09.503Z,94621.00
2023-05-20T06:21:09.536Z,94619.00
2023-05-20T06:22:09.512Z,94618.00
2023-05-20T06:23:09.522Z,94623.00
2023-05-20T06:24:09.611Z,94621.00
2023-05-20T06:25:09.492Z,94625.00
2023-05-20T06:26:09.503Z,94623.00
2023-05-20T06:27:09.501Z,94623.00
2023-05-20T06:28:09.522Z,94623.00
2023-05-20T06:29:09.525Z,94618.00
2023-05-20T06:30:09.486Z,94621.00
2023-05-20T06:31:09.578Z,94621.00
2023-05-20T06:32:09.488Z,94618.00
2023-05-20T06:33:09.527Z,94616.00
2023-05-20T06:34:09.518Z,94618.00
2023-05-20T06:35:09.497Z,94618.00
2023-05-20T06:36:09.499Z,94621.00
2023-05-20T06:37:09.466Z,94621.00
2023-05-20T06:38:09.529Z,94618.00
2023-05-20T06:39:09.462Z,94614.00
2023-05-20T06:40:09.473Z,94612.00
2023-05-20T06:41:09.467Z,94612.00
2023-05-20T06:42:09.478Z,94612.00
2023-05-20T06:43:09.489Z,94612.00
2023-05-20T06:44:09.473Z,94612.00
2023-05-20T06:45:09.478Z,94614.00
2023-05-20T06:46:09.530Z,94614.00
2023-05-20T06:47:09.479Z,94612.00
2023-05-20T06:48:09.531Z,94612.00
2023-05-20T06:49:09.477Z,94610.00
2023-05-20T06:50:09.464Z,94606.00
2023-05-20T06:51:09.524Z,94606.00
2023-05-20T06:52:09.460Z,94604.00
2023-05-20T06:53:09.485Z,94602.00
2023-05-20T06:54:09.501Z,94600.00
2023-05-20T06:55:09.472Z,94598.00
2023-05-20T06:56:09.456Z,94596.00
2023-05-20T06:57:09.459Z,94596.00
2023-05-20T06:58:09.456Z,94596.00
2023-05-20T06:59:09.464Z,94594.00
2023-05-20T07:00:09.459Z,94592.00
2023-05-20T07:01:09.526Z,94590.00
2023-05-20T07:02:09.502Z,94586.00
2023-05-20T07:03:09.483Z,94584.00
2023-05-20T07:04:09.497Z,94584.00
2023-05-20T07:05:09.462Z,94584.00
2023-05-20T07:06:09.448Z,94580.00
2023-05-20T07:07:09.471Z,94580.00
2023-05-20T07:08:09.527Z,94582.00
2023-05-20T07:09:09.444Z,94578.00
2023-05-20T07:10:09.449Z,94576.00
2023-05-20T07:11:09.436Z,94576.00
2023-05-20T07:12:09.443Z,94572.00
2023-05-20T07:13:09.442Z,94567.00
2023-05-20T07:14:09.444Z,94567.00
2023-05-20T07:15:09.457Z,94563.00
2023-05-20T07:16:09.540Z,94561.00
2023-05-20T07:17:09.449Z,94557.00
2023-05-20T07:18:09.473Z,94559.00
2023-05-20T07:19:09.515Z,94559.00
2023-05-20T07:20:09.446Z,94557.00
2023-05-20T07:21:09.474Z,94555.00
2023-05-20T07:22:09.445Z,94555.00
2023-05-20T07:23:09.448Z,94553.00
2023-05-20T07:24:09.454Z,94551.00
2023-05-20T07:25:09.426Z,94551.00
2023-05-20T07:26:09.443Z,94547.00
2023-05-20T07:27:09.429Z,94549.00
2023-05-20T07:28:09.428Z,94543.00
2023-05-20T07:29:09.435Z,94541.00
2023-05-20T07:30:09.444Z,94537.00
2023-05-20T07:31:09.451Z,94535.00
2023-05-20T07:32:09.474Z,94533.00
2023-05-20T07:33:09.453Z,94531.00
2023-05-20T07:34:09.472Z,94535.00
2023-05-20T07:35:09.445Z,94531.00
2023-05-20T07:36:11.244Z,94529.00
2023-05-20T07:37:09.443Z,94531.00
2023-05-20T07:38:09.447Z,94527.00
2023-05-20T07:39:12.554Z,94529.00
2023-05-20T07:40:10.439Z,94525.00
2023-05-20T07:41:09.439Z,94527.00
2023-05-20T07:42:09.426Z,94523.00
2023-05-20T07:43:09.430Z,94523.00
2023-05-20T07:44:09.423Z,94523.00
2023-05-20T07:45:09.407Z,94521.00
2023-05-20T07:46:09.442Z,94519.00
2023-05-20T07:47:09.389Z,94523.00
2023-05-20T07:48:09.414Z,94521.00
2023-05-20T07:49:09.378Z,94519.00
2023-05-20T07:50:09.392Z,94523.00
2023-05-20T07:51:09.428Z,94521.00
2023-05-20T07:52:09.365Z,94519.00
2023-05-20T07:53:09.341Z,94521.00
2023-05-20T07:54:09.356Z,94525.00
2023-05-20T07:55:09.336Z,94525.00
2023-05-20T07:56:09.341Z,94521.00
2023-05-20T07:57:09.342Z,94521.00
2023-05-20T07:58:09.326Z,94519.00
2023-05-20T07:59:09.308Z,94516.00
2023-05-20T08:00:09.301Z,94521.00
2023-05-20T08:01:09.324Z,94517.00
2023-05-20T08:02:09.342Z,94517.00
2023-05-20T08:03:09.496Z,94523.00
2023-05-20T08:04:09.359Z,94516.00
2023-05-20T08:05:09.291Z,94517.00
2023-05-20T08:06:09.308Z,94516.00
2023-05-20T08:07:09.308Z,94512.00
2023-05-20T08:08:09.301Z,94514.00
2023-05-20T08:09:09.320Z,94512.00
2023-05-20T08:10:09.321Z,94516.00
2023-05-20T08:11:09.338Z,94516.00
2023-05-20T08:12:09.392Z,94517.00
2023-05-20T08:13:09.361Z,94519.00
2023-05-20T08:14:09.379Z,94516.00
2023-05-20T08:15:09.395Z,94514.00
2023-05-20T08:16:09.428Z,94512.00
2023-05-20T08:17:09.552Z,94512.00
2023-05-20T08:18:09.515Z,94510.00
2023-05-20T08:19:09.546Z,94508.00
2023-05-20T08:20:09.494Z,94508.00
2023-05-20T08:21:09.517Z,94506.00
2023-05-20T08:22:09.542Z,94506.00
2023-05-20T08:23:09.606Z,94504.00
2023-05-20T08:24:09.621Z,94504.00
2023-05-20T08:25:09.660Z,94504.00
2023-05-20T08:26:09.699Z,94502.00
2023-05-20T08:27:09.707Z,94498.00
2023-05-20T08:28:09.734Z,94496.00
2023-05-20T08:29:09.784Z,94498.00
2023-05-20T08:30:09.857Z,94496.00
2023-05-20T08:31:09.885Z,94494.00
2023-05-20T08:32:09.848Z,94490.00
2023-05-20T08:33:09.910Z,94492.00
2023-05-20T08:34:09.944Z,94488.00
2023-05-20T08:35:10.056Z,94488.00
2023-05-20T08:36:10.047Z,94486.00
2023-05-20T08:37:10.111Z,94484.00
2023-05-20T08:38:10.167Z,94486.00
2023-05-20T08:39:10.228Z,94482.00
2023-05-20T08:40:10.308Z,94484.00
2023-05-20T08:41:10.458Z,94484.00
2023-05-20T08:42:10.402Z,94484.00
2023-05-20T08:43:10.449Z,94482.00
2023-05-20T08:44:10.519Z,94480.00
2023-05-20T08:45:10.570Z,94476.00
2023-05-20T08:46:10.641Z,94474.00
2023-05-20T08:47:10.674Z,94472.00
2023-05-20T08:48:10.792Z,94470.00
2023-05-20T08:49:10.798Z,94470.00
2023-05-20T08:50:10.825Z,94470.00
2023-05-20T08:51:10.878Z,94470.00
2023-05-20T08:52:10.928Z,94469.00
2023-05-20T08:53:10.990Z,94467.00
2023-05-20T08:54:11.040Z,94465.00
2023-05-20T08:55:11.098Z,94469.00
2023-05-20T08:56:11.145Z,94469.00
2023-05-20T08:57:11.208Z,94465.00
2023-05-20T08:58:11.259Z,94465.00
2023-05-20T08:59:11.280Z,94463.00
2023-05-20T09:00:11.334Z,94461.00
2023-05-20T09:01:11.387Z,94463.00
2023-05-20T09:02:11.501Z,94463.00
2023-05-20T09:03:11.522Z,94465.00
2023-05-20T09:04:11.542Z,94463.00
2023-05-20T09:05:11.659Z,94463.00
2023-05-20T09:06:11.630Z,94465.00
2023-05-20T09:07:11.701Z,94461.00
2023-05-20T09:08:11.812Z,94461.00
2023-05-20T09:09:11.814Z,94461.00
2023-05-20T09:10:11.873Z,94459.00
2023-05-20T09:11:11.935Z,94459.00
2023-05-20T09:12:11.993Z,94457.00
2023-05-20T09:13:12.104Z,94455.00
2023-05-20T09:14:12.152Z,94453.00
2023-05-20T09:15:12.215Z,94451.00
2023-05-20T09:16:12.288Z,94455.00
2023-05-20T09:17:12.317Z,94455.00
2023-05-20T09:18:12.486Z,94457.00
2023-05-20T09:19:12.548Z,94457.00
2023-05-20T09:20:12.508Z,94457.00
2023-05-20T09:21:12.568Z,94459.00
2023-05-20T09:22:12.630Z,94453.00
2023-05-20T09:23:12.687Z,94451.00
2023-05-20T09:24:12.759Z,94449.00
2023-05-20T09:25:12.821Z,94449.00
2023-05-20T09:26:12.900Z,94451.00
2023-05-20T09:27:12.947Z,94445.00
2023-05-20T09:28:13.001Z,94443.00
2023-05-20T09:29:13.066Z,94443.00
2023-05-20T09:30:13.120Z,94439.00
2023-05-20T09:31:13.192Z,94437.00
2023-05-20T09:32:13.329Z,94433.00
2023-05-20T09:33:13.317Z,94431.00
2023-05-20T09:34:13.360Z,94431.00
2023-05-20T09:35:13.464Z,94429.00
2023-05-20T09:36:14.629Z,94427.00
2023-05-20T09:37:13.473Z,94425.00
2023-05-20T09:38:13.470Z,94423.00
2023-05-20T09:39:13.457Z,94422.00
2023-05-20T09:40:13.472Z,94423.00
2023-05-20T09:41:13.459Z,94423.00
2023-05-20T09:42:13.438Z,94418.00
2023-05-20T09:43:13.442Z,94418.00
2023-05-20T09:44:13.436Z,94416.00
2023-05-20T09:45:13.434Z,94416.00
2023-05-20T09:46:13.443Z,94414.00
2023-05-20T09:47:13.433Z,94412.00
2023-05-20T09:48:13.468Z,94408.00
2023-05-20T09:49:13.432Z,94410.00
2023-05-20T09:50:13.404Z,94402.00
2023-05-20T09:51:13.394Z,94400.00
2023-05-20T09:52:13.383Z,94398.00
2023-05-20T09:53:13.380Z,94398.00
2023-05-20T09:54:13.408Z,94396.00
2023-05-20T09:55:13.373Z,94394.00
2023-05-20T09:56:13.373Z,94388.00
2023-05-20T09:57:13.358Z,94373.00
2023-05-20T09:58:15.537Z,94369.00
2023-05-20T09:59:13.340Z,94365.00
2023-05-20T10:00:13.324Z,94371.00
2023-05-20T10:01:13.463Z,94359.00
2023-05-20T10:02:13.461Z,94357.00
2023-05-20T10:03:13.393Z,94359.00
2023-05-20T10:04:13.325Z,94353.00
2023-05-20T10:05:13.321Z,94349.00
2023-05-20T10:06:13.287Z,94349.00
2023-05-20T10:07:13.284Z,94343.00
2023-05-20T10:08:13.291Z,94343.00
2023-05-20T10:09:13.327Z,94341.00
2023-05-20T10:10:13.271Z,94337.00
2023-05-20T10:11:13.256Z,94341.00
2023-05-20T10:12:13.245Z,94345.00
2023-05-20T10:13:13.265Z,94337.00
2023-05-20T10:14:13.275Z,94339.00
2023-05-20T10:15:13.247Z,94339.00
2023-05-20T10:16:13.264Z,94339.00
2023-05-20T10:17:13.219Z,94343.00
2023-05-20T10:18:13.230Z,94339.00
2023-05-20T10:19:13.272Z,94341.00
2023-05-20T10:20:13.216Z,94337.00
2023-05-20T10:21:13.192Z,94339.00
2023-05-20T10:22:13.198Z,94333.00
2023-05-20T10:23:13.199Z,94335.00
2023-05-20T10:24:13.184Z,94335.00
2023-05-20T10:25:13.164Z,94339.00
2023-05-20T10:26:13.189Z,94345.00
2023-05-20T10:27:13.176Z,94343.00
2023-05-20T10:28:13.158Z,94347.00
2023-05-20T10:29:13.143Z,94341.00
2023-05-20T10:30:13.156Z,94343.00
2023-05-20T10:31:13.147Z,94343.00
2023-05-20T10:32:13.178Z,94345.00
2023-05-20T10:33:13.281Z,94341.00
2023-05-20T10:34:13.126Z,94343.00
2023-05-20T10:35:13.113Z,94341.00
2023-05-20T10:36:13.122Z,94341.00
2023-05-20T10:37:13.118Z,94337.00
2023-05-20T10:38:13.100Z,94339.00
2023-05-20T10:39:13.152Z,94343.00
2023-05-20T10:40:13.176Z,94339.00
2023-05-20T10:41:13.258Z,94335.00
2023-05-20T10:42:13.259Z,94328.00
2023-05-20T10:43:13.325Z,94330.00
2023-05-20T10:44:13.366Z,94326.00
2023-05-20T10:45:13.424Z,94328.00
2023-05-20T10:46:21.818Z,94322.00
2023-05-20T10:47:24.786Z,94318.00
2023-05-20T10:48:14.515Z,94328.00
2023-05-20T10:49:13.544Z,94322.00
2023-05-20T10:50:13.418Z,94322.00
2023-05-20T10:51:13.419Z,94320.00
2023-05-20T10:52:13.401Z,94318.00
2023-05-20T10:53:21.964Z,94318.00
2023-05-20T10:54:14.408Z,94320.00
2023-05-20T10:55:13.394Z,94322.00
2023-05-20T10:56:13.376Z,94324.00
2023-05-20T10:57:13.379Z,94322.00
2023-05-20T10:58:13.360Z,94324.00
2023-05-20T10:59:13.381Z,94322.00
2023-05-20T11:00:13.345Z,94318.00
2023-05-20T11:01:13.373Z,94320.00
2023-05-20T11:02:13.345Z,94312.00
2023-05-20T11:03:13.393Z,94316.00
2023-05-20T11:04:13.440Z,94310.00
2023-05-20T11:05:13.334Z,94310.00
2023-05-20T11:06:14.389Z,94308.00
2023-05-20T11:07:13.431Z,94310.00
2023-05-20T11:08:24.637Z,94310.00
2023-05-20T11:09:14.499Z,94306.00
2023-05-20T11:10:13.468Z,94306.00
2023-05-20T11:11:13.480Z,94312.00
2023-05-20T11:12:14.658Z,94316.00
2023-05-20T11:13:13.488Z,94314.00
2023-05-20T11:14:13.446Z,94312.00
2023-05-20T11:15:13.464Z,94316.00
2023-05-20T11:16:13.468Z,94314.00
2023-05-20T11:17:13.449Z,94312.00
2023-05-20T11:18:13.505Z,94312.00
2023-05-20T11:19:13.543Z,94310.00
2023-05-20T11:20:13.514Z,94308.00
2023-05-20T11:21:13.559Z,94306.00
2023-05-20T11:22:13.614Z,94308.00
2023-05-20T11:23:13.655Z,94314.00
2023-05-20T11:24:13.700Z,94316.00
2023-05-20T11:25:13.753Z,94316.00
2023-05-20T11:26:13.787Z,94320.00
2023-05-20T11:27:13.833Z,94318.00
2023-05-20T11:28:13.880Z,94316.00
2023-05-20T11:29:13.912Z,94312.00
2023-05-20T11:30:13.966Z,94314.00
2023-05-20T11:31:14.019Z,94318.00
2023-05-20T11:32:14.144Z,94314.00
2023-05-20T11:33:14.177Z,94314.00
2023-05-20T11:34:14.135Z,94314.00
2023-05-20T11:35:14.192Z,94316.00
2023-05-20T11:36:27.039Z,94310.00
2023-05-20T11:37:15.234Z,94314.00
2023-05-20T11:38:14.214Z,94318.00
2023-05-20T11:39:14.226Z,94324.00
2023-05-20T11:40:14.314Z,94320.00
2023-05-20T11:41:14.192Z,94326.00
2023-05-20T11:42:14.188Z,94322.00
2023-05-20T11:43:14.194Z,94322.00
2023-05-20T11:44:14.180Z,94324.00